sensor_id;sensor_type;location;lat;lon;timestamp;P1;durP1;ratioP1;P2;durP2;ratioP2
26191;SDS011;13935;55.672;37.764;2023-06-22T02:56:35;56.20;;;32.60;;
26191;SDS011;13935;55.672;37.764;2023-06-22T02:58:27;54.40;;;30.70;;
26191;SDS011;13935;55.672;37.764;2023-06-22T02:59:31;46.30;;;32.25;;
26191;SDS011;13935;55.672;37.764;2023-06-22T03:00:42;52.47;;;32.35;;
26191;SDS011;13935;55.672;37.764;2023-06-22T03:01:45;59.53;;;33.92;;
26191;SDS011;13935;55.672;37.764;2023-06-22T03:02:55;54.58;;;34.38;;
26191;SDS011;13935;55.672;37.764;2023-06-22T03:03:59;51.53;;;33.33;;
26191;SDS011;13935;55.672;37.764;2023-06-22T03:05:01;51.97;;;33.63;;
26191;SDS011;13935;55.672;37.764;2023-06-22T03:06:03;54.65;;;31.33;;
26191;SDS011;13935;55.672;37.764;2023-06-22T03:07:06;48.50;;;30.50;;
26191;SDS011;13935;55.672;37.764;2023-06-22T03:08:08;51.55;;;29.90;;
26191;SDS011;13935;55.672;37.764;2023-06-22T03:09:10;47.42;;;29.52;;
26191;SDS011;13935;55.672;37.764;2023-06-22T03:10:13;48.22;;;30.02;;
26191;SDS011;13935;55.672;37.764;2023-06-22T03:11:16;43.20;;;28.40;;
26191;SDS011;13935;55.672;37.764;2023-06-22T03:12:18;51.65;;;29.00;;
26191;SDS011;13935;55.672;37.764;2023-06-22T03:13:26;44.23;;;27.53;;
26191;SDS011;13935;55.672;37.764;2023-06-22T03:14:29;39.47;;;27.70;;
26191;SDS011;13935;55.672;37.764;2023-06-22T03:15:31;42.17;;;27.15;;
26191;SDS011;13935;55.672;37.764;2023-06-22T03:16:35;39.83;;;26.33;;
26191;SDS011;13935;55.672;37.764;2023-06-22T03:17:39;39.83;;;26.45;;
26191;SDS011;13935;55.672;37.764;2023-06-22T03:18:43;36.92;;;25.33;;
26191;SDS011;13935;55.672;37.764;2023-06-22T03:19:48;38.10;;;24.55;;
26191;SDS011;13935;55.672;37.764;2023-06-22T03:20:50;39.15;;;25.50;;
26191;SDS011;13935;55.672;37.764;2023-06-22T03:21:52;47.05;;;26.20;;
26191;SDS011;13935;55.672;37.764;2023-06-22T03:22:54;34.70;;;24.10;;
26191;SDS011;13935;55.672;37.764;2023-06-22T03:23:57;38.58;;;23.95;;
26191;SDS011;13935;55.672;37.764;2023-06-22T03:24:59;45.38;;;24.55;;
26191;SDS011;13935;55.672;37.764;2023-06-22T03:26:01;35.40;;;22.60;;
26191;SDS011;13935;55.672;37.764;2023-06-22T03:27:04;36.28;;;23.10;;
26191;SDS011;13935;55.672;37.764;2023-06-22T03:28:08;36.08;;;22.30;;
26191;SDS011;13935;55.672;37.764;2023-06-22T03:29:10;37.92;;;22.63;;
26191;SDS011;13935;55.672;37.764;2023-06-22T03:30:12;38.20;;;22.10;;
26191;SDS011;13935;55.672;37.764;2023-06-22T03:31:14;32.53;;;21.60;;
26191;SDS011;13935;55.672;37.764;2023-06-22T03:32:17;31.70;;;20.90;;
26191;SDS011;13935;55.672;37.764;2023-06-22T03:33:18;29.05;;;20.33;;
26191;SDS011;13935;55.672;37.764;2023-06-22T03:34:20;33.42;;;20.15;;
26191;SDS011;13935;55.672;37.764;2023-06-22T03:35:26;31.83;;;18.73;;
26191;SDS011;13935;55.672;37.764;2023-06-22T03:36:29;28.15;;;19.70;;
26191;SDS011;13935;55.672;37.764;2023-06-22T03:37:31;29.85;;;19.67;;
26191;SDS011;13935;55.672;37.764;2023-06-22T03:38:34;26.05;;;17.73;;
26191;SDS011;13935;55.672;37.764;2023-06-22T03:39:37;25.63;;;17.30;;
26191;SDS011;13935;55.672;37.764;2023-06-22T03:40:39;29.80;;;18.10;;
26191;SDS011;13935;55.672;37.764;2023-06-22T03:41:41;32.17;;;18.67;;
26191;SDS011;13935;55.672;37.764;2023-06-22T03:42:43;28.70;;;18.10;;
26191;SDS011;13935;55.672;37.764;2023-06-22T03:43:46;31.13;;;17.42;;
26191;SDS011;13935;55.672;37.764;2023-06-22T03:44:49;30.02;;;18.48;;
26191;SDS011;13935;55.672;37.764;2023-06-22T03:45:51;23.70;;;17.30;;
26191;SDS011;13935;55.672;37.764;2023-06-22T03:46:53;27.63;;;17.42;;
26191;SDS011;13935;55.672;37.764;2023-06-22T03:47:55;25.73;;;16.40;;
26191;SDS011;13935;55.672;37.764;2023-06-22T03:48:57;26.25;;;16.67;;
26191;SDS011;13935;55.672;37.764;2023-06-22T03:50:00;30.00;;;16.38;;
26191;SDS011;13935;55.672;37.764;2023-06-22T03:51:02;24.40;;;16.73;;
26191;SDS011;13935;55.672;37.764;2023-06-22T03:52:05;24.58;;;17.02;;
26191;SDS011;13935;55.672;37.764;2023-06-22T03:53:07;26.92;;;16.42;;
26191;SDS011;13935;55.672;37.764;2023-06-22T03:54:09;25.55;;;16.48;;
26191;SDS011;13935;55.672;37.764;2023-06-22T03:55:12;26.10;;;16.25;;
26191;SDS011;13935;55.672;37.764;2023-06-22T03:56:14;23.52;;;15.73;;
26191;SDS011;13935;55.672;37.764;2023-06-22T03:57:22;33.85;;;17.67;;
26191;SDS011;13935;55.672;37.764;2023-06-22T03:58:23;26.67;;;16.65;;
26191;SDS011;13935;55.672;37.764;2023-06-22T03:59:26;27.52;;;16.55;;
26191;SDS011;13935;55.672;37.764;2023-06-22T04:00:28;27.65;;;16.27;;
26191;SDS011;13935;55.672;37.764;2023-06-22T04:01:31;24.63;;;17.10;;
26191;SDS011;13935;55.672;37.764;2023-06-22T04:02:32;26.20;;;16.90;;
26191;SDS011;13935;55.672;37.764;2023-06-22T04:03:34;22.33;;;16.15;;
26191;SDS011;13935;55.672;37.764;2023-06-22T04:04:37;26.27;;;16.67;;
26191;SDS011;13935;55.672;37.764;2023-06-22T04:05:41;27.42;;;16.77;;
26191;SDS011;13935;55.672;37.764;2023-06-22T04:06:44;26.58;;;15.55;;
26191;SDS011;13935;55.672;37.764;2023-06-22T04:07:46;22.92;;;16.50;;
26191;SDS011;13935;55.672;37.764;2023-06-22T04:08:48;21.42;;;16.00;;
26191;SDS011;13935;55.672;37.764;2023-06-22T04:09:53;26.23;;;16.02;;
26191;SDS011;13935;55.672;37.764;2023-06-22T04:10:55;24.13;;;15.80;;
26191;SDS011;13935;55.672;37.764;2023-06-22T04:11:57;20.73;;;14.85;;
26191;SDS011;13935;55.672;37.764;2023-06-22T04:12:59;27.92;;;16.40;;
26191;SDS011;13935;55.672;37.764;2023-06-22T04:14:02;22.90;;;15.80;;
26191;SDS011;13935;55.672;37.764;2023-06-22T04:15:04;22.60;;;16.10;;
26191;SDS011;13935;55.672;37.764;2023-06-22T04:16:07;22.65;;;16.17;;
26191;SDS011;13935;55.672;37.764;2023-06-22T04:17:09;26.38;;;15.75;;
26191;SDS011;13935;55.672;37.764;2023-06-22T04:18:11;23.45;;;15.13;;
26191;SDS011;13935;55.672;37.764;2023-06-22T04:19:14;20.27;;;14.60;;
26191;SDS011;13935;55.672;37.764;2023-06-22T04:20:19;24.35;;;15.10;;
26191;SDS011;13935;55.672;37.764;2023-06-22T04:21:21;24.17;;;15.20;;
26191;SDS011;13935;55.672;37.764;2023-06-22T04:22:23;27.45;;;15.73;;
26191;SDS011;13935;55.672;37.764;2023-06-22T04:23:25;20.50;;;14.57;;
26191;SDS011;13935;55.672;37.764;2023-06-22T04:24:27;22.73;;;14.35;;
26191;SDS011;13935;55.672;37.764;2023-06-22T04:25:31;24.83;;;13.95;;
26191;SDS011;13935;55.672;37.764;2023-06-22T04:26:33;24.35;;;13.73;;
26191;SDS011;13935;55.672;37.764;2023-06-22T04:27:38;19.35;;;14.25;;
26191;SDS011;13935;55.672;37.764;2023-06-22T04:28:42;25.65;;;13.82;;
26191;SDS011;13935;55.672;37.764;2023-06-22T04:29:44;21.38;;;14.77;;
26191;SDS011;13935;55.672;37.764;2023-06-22T04:30:51;21.63;;;13.15;;
26191;SDS011;13935;55.672;37.764;2023-06-22T04:31:53;18.77;;;13.43;;
26191;SDS011;13935;55.672;37.764;2023-06-22T04:32:55;21.58;;;13.48;;
26191;SDS011;13935;55.672;37.764;2023-06-22T04:34:00;19.20;;;11.80;;
26191;SDS011;13935;55.672;37.764;2023-06-22T04:35:09;18.80;;;13.48;;
26191;SDS011;13935;55.672;37.764;2023-06-22T04:36:12;17.27;;;12.13;;
26191;SDS011;13935;55.672;37.764;2023-06-22T04:37:14;22.02;;;13.27;;
26191;SDS011;13935;55.672;37.764;2023-06-22T04:38:17;19.80;;;12.70;;
26191;SDS011;13935;55.672;37.764;2023-06-22T04:39:19;21.20;;;13.38;;
26191;SDS011;13935;55.672;37.764;2023-06-22T04:40:22;20.95;;;13.20;;
26191;SDS011;13935;55.672;37.764;2023-06-22T04:41:25;18.48;;;12.80;;
26191;SDS011;13935;55.672;37.764;2023-06-22T04:42:27;19.73;;;13.10;;
26191;SDS011;13935;55.672;37.764;2023-06-22T04:43:30;20.48;;;13.25;;
26191;SDS011;13935;55.672;37.764;2023-06-22T04:44:32;23.95;;;13.70;;
26191;SDS011;13935;55.672;37.764;2023-06-22T04:45:34;20.92;;;13.90;;
26191;SDS011;13935;55.672;37.764;2023-06-22T04:46:39;20.23;;;12.45;;
26191;SDS011;13935;55.672;37.764;2023-06-22T04:47:41;20.33;;;12.38;;
26191;SDS011;13935;55.672;37.764;2023-06-22T04:48:43;19.52;;;12.70;;
26191;SDS011;13935;55.672;37.764;2023-06-22T04:49:46;13.98;;;9.30;;
26191;SDS011;13935;55.672;37.764;2023-06-22T04:50:49;14.38;;;9.40;;
26191;SDS011;13935;55.672;37.764;2023-06-22T04:51:51;13.57;;;9.40;;
26191;SDS011;13935;55.672;37.764;2023-06-22T04:52:56;17.60;;;9.23;;
26191;SDS011;13935;55.672;37.764;2023-06-22T04:53:59;17.55;;;10.25;;
26191;SDS011;13935;55.672;37.764;2023-06-22T04:55:02;12.98;;;9.68;;
26191;SDS011;13935;55.672;37.764;2023-06-22T04:56:05;16.02;;;9.75;;
26191;SDS011;13935;55.672;37.764;2023-06-22T04:57:08;16.65;;;9.15;;
26191;SDS011;13935;55.672;37.764;2023-06-22T04:58:13;12.27;;;8.18;;
26191;SDS011;13935;55.672;37.764;2023-06-22T04:59:15;13.43;;;7.45;;
26191;SDS011;13935;55.672;37.764;2023-06-22T05:00:19;12.40;;;8.02;;
26191;SDS011;13935;55.672;37.764;2023-06-22T05:01:24;14.27;;;7.75;;
26191;SDS011;13935;55.672;37.764;2023-06-22T05:02:27;12.18;;;7.28;;
26191;SDS011;13935;55.672;37.764;2023-06-22T05:03:33;13.93;;;8.10;;
26191;SDS011;13935;55.672;37.764;2023-06-22T05:04:38;12.52;;;7.40;;
26191;SDS011;13935;55.672;37.764;2023-06-22T05:05:41;10.80;;;7.57;;
26191;SDS011;13935;55.672;37.764;2023-06-22T05:06:43;15.18;;;8.15;;
26191;SDS011;13935;55.672;37.764;2023-06-22T05:07:46;10.30;;;7.53;;
26191;SDS011;13935;55.672;37.764;2023-06-22T05:08:55;12.38;;;7.57;;
26191;SDS011;13935;55.672;37.764;2023-06-22T05:10:02;12.23;;;7.05;;
26191;SDS011;13935;55.672;37.764;2023-06-22T05:11:06;9.80;;;6.97;;
26191;SDS011;13935;55.672;37.764;2023-06-22T05:12:08;11.90;;;7.15;;
26191;SDS011;13935;55.672;37.764;2023-06-22T05:13:12;12.57;;;7.68;;
26191;SDS011;13935;55.672;37.764;2023-06-22T05:14:23;10.27;;;7.22;;
26191;SDS011;13935;55.672;37.764;2023-06-22T05:15:25;9.50;;;5.88;;
26191;SDS011;13935;55.672;37.764;2023-06-22T05:16:32;15.00;;;5.88;;
26191;SDS011;13935;55.672;37.764;2023-06-22T05:17:34;8.70;;;5.70;;
26191;SDS011;13935;55.672;37.764;2023-06-22T05:18:37;13.68;;;9.25;;
26191;SDS011;13935;55.672;37.764;2023-06-22T05:19:40;12.52;;;6.78;;
26191;SDS011;13935;55.672;37.764;2023-06-22T05:20:49;8.40;;;5.13;;
26191;SDS011;13935;55.672;37.764;2023-06-22T05:21:51;8.77;;;5.47;;
26191;SDS011;13935;55.672;37.764;2023-06-22T05:22:53;10.10;;;5.97;;
26191;SDS011;13935;55.672;37.764;2023-06-22T05:23:56;13.73;;;5.82;;
26191;SDS011;13935;55.672;37.764;2023-06-22T05:25:02;8.93;;;4.78;;
26191;SDS011;13935;55.672;37.764;2023-06-22T05:26:06;10.65;;;5.43;;
26191;SDS011;13935;55.672;37.764;2023-06-22T05:27:11;8.77;;;5.05;;
26191;SDS011;13935;55.672;37.764;2023-06-22T05:28:21;10.65;;;4.88;;
26191;SDS011;13935;55.672;37.764;2023-06-22T05:29:25;7.72;;;5.20;;
26191;SDS011;13935;55.672;37.764;2023-06-22T05:30:28;10.10;;;5.20;;
26191;SDS011;13935;55.672;37.764;2023-06-22T05:31:31;8.43;;;4.88;;
26191;SDS011;13935;55.672;37.764;2023-06-22T05:32:33;8.13;;;4.90;;
26191;SDS011;13935;55.672;37.764;2023-06-22T05:33:36;8.77;;;5.15;;
26191;SDS011;13935;55.672;37.764;2023-06-22T05:34:38;7.50;;;4.63;;
26191;SDS011;13935;55.672;37.764;2023-06-22T05:35:40;8.65;;;5.03;;
26191;SDS011;13935;55.672;37.764;2023-06-22T05:36:43;7.25;;;5.10;;
26191;SDS011;13935;55.672;37.764;2023-06-22T05:37:45;10.23;;;5.18;;
26191;SDS011;13935;55.672;37.764;2023-06-22T05:38:48;7.07;;;5.32;;
26191;SDS011;13935;55.672;37.764;2023-06-22T05:39:50;10.63;;;5.10;;
26191;SDS011;13935;55.672;37.764;2023-06-22T05:40:54;7.65;;;5.07;;
26191;SDS011;13935;55.672;37.764;2023-06-22T05:41:57;9.23;;;4.93;;
26191;SDS011;13935;55.672;37.764;2023-06-22T05:42:59;9.30;;;4.65;;
26191;SDS011;13935;55.672;37.764;2023-06-22T05:44:03;7.65;;;4.75;;
26191;SDS011;13935;55.672;37.764;2023-06-22T05:45:05;9.60;;;4.93;;
26191;SDS011;13935;55.672;37.764;2023-06-22T05:46:09;7.68;;;4.72;;
26191;SDS011;13935;55.672;37.764;2023-06-22T05:47:12;9.90;;;5.40;;
26191;SDS011;13935;55.672;37.764;2023-06-22T05:48:15;7.13;;;4.72;;
26191;SDS011;13935;55.672;37.764;2023-06-22T05:49:17;9.93;;;4.88;;
26191;SDS011;13935;55.672;37.764;2023-06-22T05:50:20;10.63;;;4.88;;
26191;SDS011;13935;55.672;37.764;2023-06-22T05:51:22;7.70;;;4.72;;
26191;SDS011;13935;55.672;37.764;2023-06-22T05:52:28;9.05;;;5.10;;
26191;SDS011;13935;55.672;37.764;2023-06-22T05:53:30;7.32;;;5.45;;
26191;SDS011;13935;55.672;37.764;2023-06-22T05:54:32;6.32;;;4.75;;
26191;SDS011;13935;55.672;37.764;2023-06-22T05:55:35;9.23;;;5.43;;
26191;SDS011;13935;55.672;37.764;2023-06-22T05:56:43;6.82;;;5.10;;
26191;SDS011;13935;55.672;37.764;2023-06-22T05:57:47;8.95;;;5.03;;
26191;SDS011;13935;55.672;37.764;2023-06-22T05:58:49;7.97;;;5.22;;
26191;SDS011;13935;55.672;37.764;2023-06-22T05:59:51;8.75;;;5.10;;
26191;SDS011;13935;55.672;37.764;2023-06-22T06:00:56;9.07;;;4.85;;
26191;SDS011;13935;55.672;37.764;2023-06-22T06:01:58;9.43;;;4.95;;
26191;SDS011;13935;55.672;37.764;2023-06-22T06:03:01;7.10;;;4.95;;
26191;SDS011;13935;55.672;37.764;2023-06-22T06:04:10;7.65;;;4.70;;
26191;SDS011;13935;55.672;37.764;2023-06-22T06:05:14;6.72;;;4.88;;
26191;SDS011;13935;55.672;37.764;2023-06-22T06:06:19;10.02;;;4.70;;
26191;SDS011;13935;55.672;37.764;2023-06-22T06:07:23;9.15;;;4.78;;
26191;SDS011;13935;55.672;37.764;2023-06-22T06:08:26;7.07;;;4.68;;
26191;SDS011;13935;55.672;37.764;2023-06-22T06:09:28;8.10;;;5.20;;
26191;SDS011;13935;55.672;37.764;2023-06-22T06:10:36;7.13;;;5.35;;
26191;SDS011;13935;55.672;37.764;2023-06-22T06:11:39;8.85;;;4.85;;
26191;SDS011;13935;55.672;37.764;2023-06-22T06:12:41;11.60;;;5.15;;
26191;SDS011;13935;55.672;37.764;2023-06-22T06:13:54;10.93;;;4.97;;
26191;SDS011;13935;55.672;37.764;2023-06-22T06:14:58;8.90;;;5.03;;
26191;SDS011;13935;55.672;37.764;2023-06-22T06:16:03;9.77;;;5.07;;
26191;SDS011;13935;55.672;37.764;2023-06-22T06:17:05;7.97;;;5.40;;
26191;SDS011;13935;55.672;37.764;2023-06-22T06:18:07;11.02;;;5.55;;
26191;SDS011;13935;55.672;37.764;2023-06-22T06:19:10;14.18;;;5.32;;
26191;SDS011;13935;55.672;37.764;2023-06-22T06:20:13;12.05;;;5.45;;
26191;SDS011;13935;55.672;37.764;2023-06-22T06:21:17;11.25;;;5.00;;
26191;SDS011;13935;55.672;37.764;2023-06-22T06:22:20;9.75;;;6.00;;
26191;SDS011;13935;55.672;37.764;2023-06-22T06:23:23;8.82;;;5.53;;
26191;SDS011;13935;55.672;37.764;2023-06-22T06:24:26;10.07;;;6.13;;
26191;SDS011;13935;55.672;37.764;2023-06-22T06:25:30;7.47;;;5.13;;
26191;SDS011;13935;55.672;37.764;2023-06-22T06:26:32;9.55;;;5.80;;
26191;SDS011;13935;55.672;37.764;2023-06-22T06:27:34;7.72;;;5.20;;
26191;SDS011;13935;55.672;37.764;2023-06-22T06:28:36;9.00;;;5.60;;
26191;SDS011;13935;55.672;37.764;2023-06-22T06:29:38;10.40;;;5.30;;
26191;SDS011;13935;55.672;37.764;2023-06-22T06:30:50;8.10;;;4.70;;
26191;SDS011;13935;55.672;37.764;2023-06-22T06:31:53;8.40;;;4.35;;
26191;SDS011;13935;55.672;37.764;2023-06-22T06:32:55;7.50;;;5.00;;
26191;SDS011;13935;55.672;37.764;2023-06-22T06:33:58;6.93;;;4.55;;
26191;SDS011;13935;55.672;37.764;2023-06-22T06:35:00;14.27;;;4.57;;
26191;SDS011;13935;55.672;37.764;2023-06-22T06:36:05;7.72;;;5.32;;
26191;SDS011;13935;55.672;37.764;2023-06-22T06:37:12;8.25;;;4.90;;
26191;SDS011;13935;55.672;37.764;2023-06-22T06:38:14;7.43;;;4.90;;
26191;SDS011;13935;55.672;37.764;2023-06-22T06:39:16;7.10;;;5.00;;
26191;SDS011;13935;55.672;37.764;2023-06-22T06:40:22;15.20;;;4.90;;
26191;SDS011;13935;55.672;37.764;2023-06-22T06:41:24;7.43;;;4.35;;
26191;SDS011;13935;55.672;37.764;2023-06-22T06:42:26;10.70;;;5.55;;
26191;SDS011;13935;55.672;37.764;2023-06-22T06:43:28;7.45;;;4.75;;
26191;SDS011;13935;55.672;37.764;2023-06-22T06:44:31;8.18;;;4.90;;
26191;SDS011;13935;55.672;37.764;2023-06-22T06:45:33;13.68;;;4.88;;
26191;SDS011;13935;55.672;37.764;2023-06-22T06:46:36;8.32;;;4.78;;
26191;SDS011;13935;55.672;37.764;2023-06-22T06:47:39;10.23;;;5.53;;
26191;SDS011;13935;55.672;37.764;2023-06-22T06:48:42;6.10;;;4.50;;
26191;SDS011;13935;55.672;37.764;2023-06-22T06:49:47;10.40;;;4.50;;
26191;SDS011;13935;55.672;37.764;2023-06-22T06:50:50;8.27;;;4.53;;
26191;SDS011;13935;55.672;37.764;2023-06-22T06:51:52;6.68;;;4.93;;
26191;SDS011;13935;55.672;37.764;2023-06-22T06:52:54;7.72;;;4.82;;
26191;SDS011;13935;55.672;37.764;2023-06-22T06:53:57;7.78;;;5.05;;
26191;SDS011;13935;55.672;37.764;2023-06-22T06:55:01;11.85;;;5.18;;
26191;SDS011;13935;55.672;37.764;2023-06-22T06:56:04;5.28;;;4.53;;
26191;SDS011;13935;55.672;37.764;2023-06-22T06:57:07;8.35;;;4.78;;
26191;SDS011;13935;55.672;37.764;2023-06-22T06:58:12;8.52;;;4.72;;
26191;SDS011;13935;55.672;37.764;2023-06-22T07:02:54;7.00;;;4.63;;
26191;SDS011;13935;55.672;37.764;2023-06-22T07:03:56;7.05;;;4.25;;
26191;SDS011;13935;55.672;37.764;2023-06-22T07:05:03;7.85;;;4.60;;
26191;SDS011;13935;55.672;37.764;2023-06-22T07:06:15;7.22;;;4.70;;
26191;SDS011;13935;55.672;37.764;2023-06-22T07:07:47;8.15;;;4.40;;
26191;SDS011;13935;55.672;37.764;2023-06-22T07:09:03;7.25;;;4.53;;
26191;SDS011;13935;55.672;37.764;2023-06-22T07:10:20;6.22;;;4.80;;
26191;SDS011;13935;55.672;37.764;2023-06-22T07:11:36;6.20;;;4.38;;
26191;SDS011;13935;55.672;37.764;2023-06-22T07:12:41;6.15;;;4.18;;
26191;SDS011;13935;55.672;37.764;2023-06-22T07:13:49;5.63;;;4.63;;
26191;SDS011;13935;55.672;37.764;2023-06-22T07:15:07;8.15;;;4.82;;
26191;SDS011;13935;55.672;37.764;2023-06-22T07:16:25;6.30;;;5.05;;
26191;SDS011;13935;55.672;37.764;2023-06-22T07:17:34;8.02;;;4.85;;
26191;SDS011;13935;55.672;37.764;2023-06-22T07:20:05;7.25;;;4.95;;
26191;SDS011;13935;55.672;37.764;2023-06-22T07:22:38;9.73;;;5.85;;
26191;SDS011;13935;55.672;37.764;2023-06-22T07:24:23;12.23;;;5.28;;
26191;SDS011;13935;55.672;37.764;2023-06-22T07:38:07;10.45;;;5.53;;
26191;SDS011;13935;55.672;37.764;2023-06-22T07:39:13;11.27;;;6.13;;
26191;SDS011;13935;55.672;37.764;2023-06-22T07:40:27;8.93;;;5.28;;
26191;SDS011;13935;55.672;37.764;2023-06-22T07:41:45;9.35;;;4.97;;
26191;SDS011;13935;55.672;37.764;2023-06-22T07:42:53;8.02;;;5.47;;
26191;SDS011;13935;55.672;37.764;2023-06-22T07:43:58;7.32;;;5.28;;
26191;SDS011;13935;55.672;37.764;2023-06-22T07:45:06;9.55;;;5.20;;
26191;SDS011;13935;55.672;37.764;2023-06-22T07:46:16;8.05;;;5.90;;
26191;SDS011;13935;55.672;37.764;2023-06-22T07:49:02;11.10;;;5.25;;
26191;SDS011;13935;55.672;37.764;2023-06-22T07:50:08;10.30;;;6.03;;
26191;SDS011;13935;55.672;37.764;2023-06-22T07:51:16;9.15;;;5.72;;
26191;SDS011;13935;55.672;37.764;2023-06-22T07:52:33;8.18;;;5.35;;
26191;SDS011;13935;55.672;37.764;2023-06-22T07:53:37;8.32;;;4.80;;
26191;SDS011;13935;55.672;37.764;2023-06-22T07:54:43;8.95;;;5.30;;
26191;SDS011;13935;55.672;37.764;2023-06-22T07:57:25;10.60;;;5.03;;
26191;SDS011;13935;55.672;37.764;2023-06-22T07:58:39;7.97;;;5.05;;
26191;SDS011;13935;55.672;37.764;2023-06-22T07:59:45;8.70;;;5.30;;
26191;SDS011;13935;55.672;37.764;2023-06-22T08:00:48;9.70;;;5.38;;
26191;SDS011;13935;55.672;37.764;2023-06-22T08:01:52;9.98;;;5.78;;
